createdAt,value
2023-04-03T00:00:13.541Z,0.20
2023-04-03T00:02:41.629Z,0.30
2023-04-03T00:05:08.355Z,0.30
2023-04-03T00:07:34.775Z,0.30
2023-04-03T00:10:01.138Z,0.30
2023-04-03T00:12:27.475Z,0.30
2023-04-03T00:14:53.878Z,0.30
2023-04-03T00:17:20.231Z,0.40
2023-04-03T00:19:46.619Z,0.30
2023-04-03T00:22:13.153Z,0.30
2023-04-03T00:24:39.501Z,0.30
2023-04-03T00:27:05.940Z,0.35
2023-04-03T00:29:32.298Z,0.30
2023-04-03T00:31:58.611Z,0.30
2023-04-03T00:34:26.195Z,0.30
2023-04-03T00:36:52.620Z,0.40
2023-04-03T00:39:18.984Z,0.40
2023-04-03T00:41:45.325Z,0.50
2023-04-03T00:44:44.805Z,0.40
2023-04-03T00:47:16.885Z,0.52
2023-04-03T00:52:13.543Z,0.50
2023-04-03T00:54:41.525Z,0.90
2023-04-03T00:57:08.297Z,0.60
2023-04-03T00:59:36.692Z,0.60
2023-04-03T01:02:03.329Z,0.50
2023-04-03T01:04:29.721Z,0.50
2023-04-03T01:07:01.133Z,0.60
2023-04-03T01:09:27.781Z,0.50
2023-04-03T01:11:54.132Z,0.57
2023-04-03T01:14:20.444Z,0.40
2023-04-03T01:16:56.049Z,0.57
2023-04-03T01:19:23.043Z,0.45
2023-04-03T01:22:05.487Z,0.32
2023-04-03T01:24:31.832Z,0.30
2023-04-03T01:26:58.574Z,0.30
2023-04-03T01:29:25.052Z,0.43
2023-04-03T01:31:58.874Z,0.50
2023-04-03T01:34:25.726Z,0.50
2023-04-03T01:36:52.260Z,0.43
2023-04-03T01:39:18.988Z,0.43
2023-04-03T01:41:45.963Z,0.40
2023-04-03T01:44:12.542Z,0.60
2023-04-03T01:46:39.087Z,0.38
2023-04-03T01:49:05.558Z,0.57
2023-04-03T01:51:31.942Z,0.57
2023-04-03T01:53:58.315Z,0.60
2023-04-03T01:56:24.661Z,0.57
2023-04-03T01:58:50.987Z,0.43
2023-04-03T02:01:17.621Z,0.50
2023-04-03T02:03:44.106Z,0.30
2023-04-03T02:06:12.727Z,0.60
2023-04-03T02:08:39.311Z,0.40
2023-04-03T02:11:05.851Z,0.68
2023-04-03T02:13:32.281Z,0.40
2023-04-03T02:16:00.115Z,0.65
2023-04-03T02:18:26.514Z,0.38
2023-04-03T02:20:52.855Z,0.50
2023-04-03T02:23:19.143Z,0.40
2023-04-03T02:25:45.804Z,0.40
2023-04-03T02:28:12.146Z,0.50
2023-04-03T02:30:38.676Z,0.60
2023-04-03T02:33:05.387Z,0.77
2023-04-03T02:35:31.875Z,0.50
2023-04-03T02:37:58.234Z,0.50
2023-04-03T02:40:24.581Z,0.30
2023-04-03T02:42:50.982Z,0.50
2023-04-03T02:45:17.320Z,0.40
2023-04-03T02:47:43.822Z,0.40
2023-04-03T02:50:10.336Z,0.50
2023-04-03T02:52:36.802Z,0.40
2023-04-03T02:55:03.475Z,0.50
2023-04-03T02:57:29.914Z,0.60
2023-04-03T02:59:56.259Z,0.55
2023-04-03T03:02:22.715Z,0.60
2023-04-03T03:04:49.138Z,0.47
2023-04-03T03:07:15.737Z,0.50
2023-04-03T03:09:42.085Z,0.40
2023-04-03T03:12:08.413Z,0.50
2023-04-03T03:14:34.795Z,0.40
2023-04-03T03:17:01.083Z,0.30
2023-04-03T03:19:27.402Z,0.38
2023-04-03T03:21:53.937Z,0.50
2023-04-03T03:24:20.240Z,0.40
2023-04-03T03:26:46.605Z,0.35
2023-04-03T03:29:12.932Z,0.45
2023-04-03T03:31:39.377Z,0.38
2023-04-03T03:34:05.964Z,0.30
2023-04-03T03:36:32.805Z,0.50
2023-04-03T03:38:59.102Z,0.47
2023-04-03T03:41:25.502Z,1.13
2023-04-03T03:43:51.838Z,0.60
2023-04-03T03:46:18.264Z,0.50
2023-04-03T03:48:44.632Z,0.50
2023-04-03T03:51:11.094Z,0.40
2023-04-03T03:53:37.427Z,0.60
2023-04-03T03:56:04.511Z,0.57
2023-04-03T03:58:31.014Z,0.60
2023-04-03T04:00:57.853Z,0.60
2023-04-03T04:03:24.237Z,0.80
2023-04-03T04:05:50.643Z,0.60
2023-04-03T04:08:17.094Z,0.50
2023-04-03T04:10:43.397Z,0.90
2023-04-03T04:13:09.844Z,0.70
2023-04-03T04:15:36.445Z,0.70
2023-04-03T04:18:03.205Z,0.50
2023-04-03T04:20:29.621Z,0.50
2023-04-03T04:22:55.968Z,0.55
2023-04-03T04:25:22.268Z,0.40
2023-04-03T04:27:48.700Z,0.82
2023-04-03T04:30:15.228Z,0.50
2023-04-03T04:32:41.813Z,0.70
2023-04-03T04:35:08.478Z,0.70
2023-04-03T04:37:35.083Z,1.13
2023-04-03T04:40:01.502Z,0.63
2023-04-03T04:42:27.945Z,0.75
2023-04-03T04:44:54.254Z,0.60
2023-04-03T04:47:20.735Z,0.68
2023-04-03T04:49:48.435Z,0.50
2023-04-03T04:52:14.975Z,0.47
2023-04-03T04:54:41.356Z,0.60
2023-04-03T04:57:07.857Z,0.40
2023-04-03T04:59:34.254Z,0.60
2023-04-03T05:02:00.907Z,0.55
2023-04-03T05:04:27.296Z,0.90
2023-04-03T05:06:53.640Z,0.63
2023-04-03T05:09:21.039Z,0.57
2023-04-03T05:11:47.400Z,0.75
2023-04-03T05:14:13.944Z,0.63
2023-04-03T05:16:40.398Z,1.02
2023-04-03T05:19:06.747Z,0.57
2023-04-03T05:21:33.492Z,0.65
2023-04-03T05:24:03.424Z,1.35
2023-04-03T05:26:30.832Z,0.63
2023-04-03T05:28:57.286Z,0.47
2023-04-03T05:31:23.731Z,0.63
2023-04-03T05:33:50.531Z,0.70
2023-04-03T05:36:17.034Z,0.70
2023-04-03T05:38:43.706Z,0.60
2023-04-03T05:41:10.621Z,0.70
2023-04-03T05:43:39.779Z,0.50
2023-04-03T05:46:19.857Z,0.93
2023-04-03T05:48:46.363Z,0.63
2023-04-03T05:51:33.139Z,0.60
2023-04-03T05:54:19.779Z,0.70
2023-04-03T05:56:46.344Z,0.47
2023-04-03T05:59:12.717Z,0.60
2023-04-03T06:01:39.387Z,0.98
2023-04-03T06:04:06.147Z,0.40
2023-04-03T06:06:46.442Z,0.70
2023-04-03T06:09:13.201Z,0.80
2023-04-03T06:11:40.070Z,0.98
2023-04-03T06:14:06.551Z,0.90
2023-04-03T06:16:33.318Z,0.70
2023-04-03T06:18:59.707Z,0.73
2023-04-03T06:21:26.258Z,0.70
2023-04-03T06:23:53.058Z,0.70
2023-04-03T06:26:19.456Z,0.40
2023-04-03T06:28:45.912Z,0.65
2023-04-03T06:31:12.353Z,0.65
2023-04-03T06:33:38.682Z,0.88
2023-04-03T06:36:05.812Z,0.50
2023-04-03T06:38:32.662Z,0.80
2023-04-03T06:40:59.772Z,0.90
2023-04-03T06:43:26.147Z,0.70
2023-04-03T06:45:52.892Z,1.10
2023-04-03T06:48:19.226Z,0.82
2023-04-03T06:50:45.798Z,1.17
2023-04-03T06:53:13.007Z,0.80
2023-04-03T06:55:39.618Z,0.95
2023-04-03T06:58:06.328Z,0.60
2023-04-03T07:00:32.802Z,0.65
2023-04-03T07:02:59.128Z,0.80
2023-04-03T07:05:25.818Z,1.20
2023-04-03T07:07:52.402Z,0.82
2023-04-03T07:10:19.016Z,0.90
2023-04-03T07:12:45.766Z,1.02
2023-04-03T07:15:13.909Z,0.90
2023-04-03T07:17:40.290Z,0.90
2023-04-03T07:20:07.253Z,1.60
2023-04-03T07:22:33.608Z,1.42
2023-04-03T07:25:00.217Z,0.93
2023-04-03T07:27:27.036Z,1.40
2023-04-03T07:29:53.960Z,0.75
2023-04-03T07:32:21.869Z,1.15
2023-04-03T07:34:48.239Z,1.75
2023-04-03T07:37:15.652Z,1.20
2023-04-03T07:39:45.264Z,1.30
2023-04-03T07:42:11.559Z,1.25
2023-04-03T07:44:37.910Z,1.27
2023-04-03T07:47:04.238Z,1.52
2023-04-03T07:49:31.019Z,0.90
2023-04-03T07:51:57.344Z,0.95
2023-04-03T07:54:23.676Z,1.40
2023-04-03T07:56:50.311Z,1.40
2023-04-03T07:59:16.669Z,1.10
2023-04-03T08:01:43.297Z,1.00
2023-04-03T08:04:09.683Z,1.10
2023-04-03T08:06:45.980Z,1.20
2023-04-03T08:09:15.391Z,1.20
2023-04-03T08:11:41.882Z,1.20
2023-04-03T08:14:08.326Z,1.00
2023-04-03T08:16:35.021Z,0.90
2023-04-03T08:19:02.592Z,1.20
2023-04-03T08:21:29.085Z,1.02
2023-04-03T08:23:55.711Z,0.88
2023-04-03T08:26:22.562Z,1.20
2023-04-03T08:28:49.478Z,1.13
2023-04-03T08:31:18.037Z,1.00
2023-04-03T08:33:44.398Z,0.90
2023-04-03T08:36:18.159Z,1.08
2023-04-03T08:38:44.482Z,1.42
2023-04-03T08:41:15.043Z,1.95
2023-04-03T08:43:41.330Z,2.03
2023-04-03T08:46:09.206Z,1.20
2023-04-03T08:48:37.379Z,1.23
2023-04-03T08:51:10.953Z,1.50
2023-04-03T08:53:40.926Z,1.80
2023-04-03T08:56:09.450Z,2.22
2023-04-03T08:58:42.757Z,2.33
2023-04-03T09:01:19.861Z,1.65
2023-04-03T09:03:46.286Z,1.92
2023-04-03T09:06:23.330Z,1.83
2023-04-03T09:08:49.684Z,2.00
2023-04-03T09:11:19.059Z,1.58
2023-04-03T09:13:51.727Z,1.65
2023-04-03T09:16:22.470Z,1.25
2023-04-03T09:18:52.187Z,1.40
2023-04-03T09:21:24.343Z,1.30
2023-04-03T09:23:55.095Z,1.52
2023-04-03T09:26:26.973Z,1.25
2023-04-03T09:28:55.323Z,1.10
2023-04-03T09:31:21.723Z,1.50
2023-04-03T09:33:50.487Z,2.05
2023-04-03T09:36:37.156Z,1.75
2023-04-03T09:39:04.857Z,2.80
2023-04-03T09:41:31.261Z,2.60
2023-04-03T09:43:57.657Z,1.58
2023-04-03T09:46:32.151Z,2.63
2023-04-03T09:49:08.380Z,1.92
2023-04-03T09:51:35.654Z,1.65
2023-04-03T09:54:22.095Z,1.67
2023-04-03T09:56:51.732Z,1.80
2023-04-03T09:59:18.504Z,1.83
2023-04-03T10:01:58.061Z,1.83
2023-04-03T10:04:25.343Z,1.63
2023-04-03T10:06:53.188Z,2.20
2023-04-03T10:09:24.306Z,2.00
2023-04-03T10:12:11.343Z,2.40
2023-04-03T10:14:39.450Z,1.90
2023-04-03T10:17:15.621Z,1.75
2023-04-03T10:19:53.266Z,1.90
2023-04-03T10:22:21.535Z,2.17
2023-04-03T10:24:50.858Z,1.98
2023-04-03T10:27:23.165Z,1.60
2023-04-03T10:29:49.531Z,1.40
2023-04-03T10:32:16.779Z,1.80
2023-04-03T10:34:54.722Z,1.58
2023-04-03T10:37:37.740Z,1.75
2023-04-03T10:40:04.246Z,1.63
2023-04-03T10:42:36.849Z,1.67
2023-04-03T10:45:03.250Z,1.30
2023-04-03T10:47:37.208Z,1.80
2023-04-03T10:50:05.295Z,1.60
2023-04-03T10:52:41.373Z,1.85
2023-04-03T10:55:08.657Z,1.70
2023-04-03T10:57:35.625Z,1.48
2023-04-03T11:00:09.315Z,1.13
2023-04-03T11:02:43.239Z,1.10
2023-04-03T11:05:22.682Z,1.20
2023-04-03T11:07:51.469Z,1.40
2023-04-03T11:10:29.835Z,1.40
2023-04-03T11:13:12.060Z,2.30
2023-04-03T11:18:08.657Z,2.10
2023-04-03T11:20:39.098Z,1.60
2023-04-03T11:23:07.482Z,1.80
2023-04-03T11:25:35.538Z,1.60
2023-04-03T11:28:04.712Z,1.70
2023-04-03T11:30:43.622Z,1.85
2023-04-03T11:33:28.587Z,1.40
2023-04-03T11:36:18.844Z,1.00
2023-04-03T11:38:54.764Z,1.40
2023-04-03T11:41:31.861Z,1.80
2023-04-03T11:44:00.349Z,1.45
2023-04-03T11:46:57.878Z,1.70
2023-04-03T11:49:43.504Z,1.83
2023-04-03T11:52:13.195Z,1.50
2023-04-03T11:54:44.911Z,1.40
2023-04-03T11:57:43.898Z,1.70
2023-04-03T12:00:29.016Z,2.60
2023-04-03T12:02:55.761Z,2.03
2023-04-03T12:05:30.536Z,2.03
2023-04-03T12:08:15.682Z,1.50
2023-04-03T12:10:42.053Z,2.22
2023-04-03T12:13:16.582Z,1.60
2023-04-03T12:15:49.978Z,1.73
2023-04-03T12:18:35.396Z,1.65
2023-04-03T12:21:02.192Z,1.45
2023-04-03T12:23:29.605Z,1.60
2023-04-03T12:26:14.674Z,1.60
2023-04-03T12:28:42.025Z,1.50
2023-04-03T12:31:10.786Z,1.23
2023-04-03T12:34:00.653Z,1.77
2023-04-03T12:36:42.371Z,1.27
2023-04-03T12:39:21.810Z,1.83
2023-04-03T12:41:50.894Z,2.00
2023-04-03T12:44:38.540Z,1.75
2023-04-03T12:47:14.418Z,1.70
2023-04-03T12:49:42.511Z,1.70
2023-04-03T12:52:19.980Z,1.50
2023-04-03T12:54:47.392Z,1.35
2023-04-03T12:57:16.688Z,2.20
2023-04-03T12:59:44.679Z,1.10
2023-04-03T13:02:24.349Z,1.73
2023-04-03T13:04:52.063Z,1.00
2023-04-03T13:07:28.369Z,1.30
2023-04-03T13:09:58.642Z,1.10
2023-04-03T13:12:24.990Z,1.20
2023-04-03T13:14:55.898Z,1.33
2023-04-03T13:17:22.480Z,1.58
2023-04-03T13:19:48.878Z,1.48
2023-04-03T13:22:21.178Z,1.25
2023-04-03T13:24:48.608Z,1.20
2023-04-03T13:27:15.431Z,1.10
2023-04-03T13:29:42.013Z,0.70
2023-04-03T13:32:15.674Z,1.40
2023-04-03T13:34:44.207Z,1.33
2023-04-03T13:37:32.005Z,1.00
2023-04-03T13:39:59.934Z,1.02
2023-04-03T13:42:27.943Z,0.80
2023-04-03T13:45:14.697Z,0.60
2023-04-03T13:47:42.687Z,0.98
2023-04-03T13:50:12.118Z,1.13
2023-04-03T13:52:48.930Z,1.00
2023-04-03T13:55:24.547Z,0.90
2023-04-03T13:57:57.778Z,1.35
2023-04-03T14:00:32.988Z,1.10
2023-04-03T14:02:59.537Z,1.05
2023-04-03T14:05:27.628Z,1.30
2023-04-03T14:07:55.095Z,1.52
2023-04-03T14:10:21.831Z,0.90
2023-04-03T14:12:48.263Z,0.98
2023-04-03T14:15:19.854Z,0.70
2023-04-03T14:17:46.628Z,0.80
2023-04-03T14:20:17.789Z,0.95
2023-04-03T14:22:44.672Z,1.10
2023-04-03T14:25:11.095Z,0.85
2023-04-03T14:27:39.747Z,0.73
2023-04-03T14:30:07.504Z,0.95
2023-04-03T14:32:33.943Z,0.93
2023-04-03T14:35:00.564Z,1.10
2023-04-03T14:37:28.766Z,0.77
2023-04-03T14:39:55.564Z,0.80
2023-04-03T14:42:23.947Z,0.80
2023-04-03T14:44:50.304Z,0.90
2023-04-03T14:47:29.943Z,0.90
2023-04-03T14:49:57.711Z,0.70
2023-04-03T14:52:25.836Z,1.00
2023-04-03T14:54:52.504Z,0.50
2023-04-03T14:57:19.031Z,0.50
2023-04-03T14:59:46.617Z,0.50
2023-04-03T15:02:31.694Z,0.75
2023-04-03T15:04:59.179Z,0.85
2023-04-03T15:07:26.717Z,0.70
2023-04-03T15:09:53.647Z,1.00
2023-04-03T15:12:19.993Z,0.70
2023-04-03T15:14:51.878Z,0.60
2023-04-03T15:17:21.231Z,1.10
2023-04-03T15:19:47.769Z,0.95
2023-04-03T15:22:15.051Z,0.60
2023-04-03T15:24:41.564Z,0.57
2023-04-03T15:27:07.914Z,0.40
2023-04-03T15:29:34.252Z,0.95
2023-04-03T15:32:00.757Z,0.90
2023-04-03T15:34:27.229Z,0.70
2023-04-03T15:36:54.023Z,1.00
2023-04-03T15:39:21.721Z,0.75
2023-04-03T15:41:48.483Z,0.82
2023-04-03T15:44:14.863Z,0.60
2023-04-03T15:46:42.089Z,0.80
2023-04-03T15:49:08.514Z,0.75
2023-04-03T15:51:34.877Z,0.90
2023-04-03T15:54:01.219Z,0.55
2023-04-03T15:56:27.690Z,0.60
2023-04-03T15:58:54.101Z,1.30
2023-04-03T16:01:20.441Z,0.60
2023-04-03T16:03:47.949Z,1.17
2023-04-03T16:06:19.432Z,0.95
2023-04-03T16:08:46.016Z,0.50
2023-04-03T16:11:12.589Z,0.68
2023-04-03T16:13:39.014Z,0.70
2023-04-03T16:16:06.041Z,0.50
2023-04-03T16:18:32.672Z,0.65
2023-04-03T16:20:59.051Z,0.60
2023-04-03T16:23:25.473Z,0.65
2023-04-03T16:25:51.864Z,0.77
2023-04-03T16:28:18.676Z,0.60
2023-04-03T16:30:46.471Z,0.85
2023-04-03T16:33:13.353Z,0.50
2023-04-03T16:35:40.255Z,0.60
2023-04-03T16:38:06.753Z,0.73
2023-04-03T16:40:34.812Z,0.80
2023-04-03T16:43:02.002Z,0.73
2023-04-03T16:45:28.446Z,0.60
2023-04-03T16:47:54.954Z,0.60
2023-04-03T16:50:21.640Z,0.50
2023-04-03T16:52:48.020Z,0.40
2023-04-03T16:55:14.321Z,0.40
2023-04-03T16:57:40.730Z,0.50
2023-04-03T17:00:07.423Z,0.70
2023-04-03T17:02:33.906Z,0.43
2023-04-03T17:05:00.297Z,0.68
2023-04-03T17:07:26.760Z,0.75
2023-04-03T17:09:54.487Z,0.73
2023-04-03T17:12:21.535Z,0.88
2023-04-03T17:14:47.855Z,0.80
2023-04-03T17:17:19.851Z,0.77
2023-04-03T17:22:12.617Z,0.90
2023-04-03T17:24:39.208Z,0.52
2023-04-03T17:27:05.739Z,0.40
2023-04-03T17:29:32.132Z,0.60
2023-04-03T17:31:58.478Z,0.70
2023-04-03T17:34:24.932Z,0.40
2023-04-03T17:36:51.390Z,0.65
2023-04-03T17:39:17.800Z,0.35
2023-04-03T17:41:45.939Z,0.50
2023-04-03T17:44:12.509Z,0.80
2023-04-03T17:46:38.930Z,0.50
2023-04-03T17:49:05.379Z,0.60
2023-04-03T17:51:34.421Z,0.50
2023-04-03T17:54:01.087Z,0.40
2023-04-03T17:56:27.597Z,0.30
2023-04-03T17:58:58.212Z,0.30
2023-04-03T18:01:26.702Z,0.40
2023-04-03T18:03:54.017Z,0.57
2023-04-03T18:06:22.111Z,0.73
2023-04-03T18:08:49.386Z,0.80
2023-04-03T18:11:16.213Z,0.73
2023-04-03T18:13:43.118Z,0.50
2023-04-03T18:16:10.854Z,0.70
2023-04-03T18:18:37.725Z,0.90
2023-04-03T18:21:04.931Z,0.80
2023-04-03T18:23:32.583Z,0.68
2023-04-03T18:25:59.713Z,0.57
2023-04-03T18:28:27.049Z,0.93
2023-04-03T18:30:53.546Z,0.70
2023-04-03T18:33:19.930Z,1.05
2023-04-03T18:35:46.309Z,0.80
2023-04-03T18:38:12.746Z,0.85
2023-04-03T18:40:40.576Z,1.00
2023-04-03T18:43:07.208Z,1.00
2023-04-03T18:45:33.514Z,0.73
2023-04-03T18:48:00.011Z,0.80
2023-04-03T18:50:26.569Z,0.73
2023-04-03T18:52:54.051Z,0.98
2023-04-03T18:55:20.417Z,0.90
2023-04-03T18:57:47.509Z,1.00
2023-04-03T19:00:14.882Z,0.88
2023-04-03T19:02:42.223Z,0.63
2023-04-03T19:05:09.244Z,0.63
2023-04-03T19:07:35.706Z,1.42
2023-04-03T19:10:02.156Z,0.68
2023-04-03T19:12:28.659Z,0.60
2023-04-03T19:14:55.050Z,0.60
2023-04-03T19:17:21.582Z,0.60
2023-04-03T19:19:48.004Z,0.65
2023-04-03T19:22:14.509Z,0.77
2023-04-03T19:24:40.923Z,0.80
2023-04-03T19:27:07.282Z,0.80
2023-04-03T19:29:33.638Z,0.80
2023-04-03T19:32:00.266Z,0.60
2023-04-03T19:34:26.699Z,0.50
2023-04-03T19:36:53.137Z,0.52
2023-04-03T19:39:19.487Z,0.60
2023-04-03T19:41:46.302Z,0.60
2023-04-03T19:44:13.042Z,0.80
2023-04-03T19:46:39.363Z,0.80
2023-04-03T19:49:07.030Z,0.50
2023-04-03T19:51:33.411Z,0.60
2023-04-03T19:53:59.733Z,0.52
2023-04-03T19:56:26.416Z,0.40
2023-04-03T19:58:55.696Z,0.30
2023-04-03T20:01:24.303Z,0.40
2023-04-03T20:03:51.764Z,0.20
2023-04-03T20:06:18.231Z,0.40
2023-04-03T20:08:45.190Z,0.40
2023-04-03T20:11:11.890Z,0.50
2023-04-03T20:13:38.657Z,0.30
2023-04-03T20:16:05.664Z,0.43
2023-04-03T20:18:32.199Z,0.50
2023-04-03T20:21:01.815Z,0.50
2023-04-03T20:23:28.974Z,0.52
2023-04-03T20:26:06.595Z,0.40
2023-04-03T20:28:36.433Z,0.50
2023-04-03T20:31:03.104Z,0.40
2023-04-03T20:33:30.084Z,0.30
2023-04-03T20:35:57.464Z,0.40
2023-04-03T20:38:23.963Z,0.40
2023-04-03T20:40:50.589Z,0.40
2023-04-03T20:43:17.233Z,0.40
2023-04-03T20:45:43.925Z,0.77
2023-04-03T20:48:10.759Z,0.50
2023-04-03T20:50:37.210Z,0.50
2023-04-03T20:53:03.617Z,1.85
2023-04-03T20:55:30.026Z,1.58
2023-04-03T21:00:56.569Z,0.77
2023-04-03T21:03:25.226Z,1.00
2023-04-03T21:05:59.709Z,1.00
2023-04-03T21:08:45.470Z,0.73
2023-04-03T21:11:31.698Z,0.57
2023-04-03T21:14:17.103Z,0.98
2023-04-03T21:16:43.742Z,1.20
2023-04-03T21:19:19.959Z,1.08
2023-04-03T21:21:46.642Z,0.60
2023-04-03T21:24:13.779Z,0.90
2023-04-03T21:26:41.314Z,0.50
2023-04-03T21:29:08.100Z,0.50
2023-04-03T21:31:47.278Z,0.50
2023-04-03T21:34:16.557Z,1.30
2023-04-03T21:36:43.684Z,0.50
2023-04-03T21:39:10.045Z,0.50
2023-04-03T21:41:36.424Z,1.20
2023-04-03T21:44:03.180Z,1.20
2023-04-03T21:46:29.554Z,0.98
2023-04-03T21:48:56.000Z,0.80
2023-04-03T21:51:22.780Z,0.45
2023-04-03T21:53:53.354Z,0.70
2023-04-03T21:56:20.170Z,0.63
2023-04-03T21:58:46.626Z,0.45
2023-04-03T22:01:14.084Z,0.70
2023-04-03T22:03:43.949Z,0.50
2023-04-03T22:06:11.529Z,0.47
2023-04-03T22:08:38.017Z,0.38
2023-04-03T22:11:06.074Z,0.30
2023-04-03T22:13:32.506Z,0.70
2023-04-03T22:15:59.487Z,1.00
2023-04-03T22:18:26.308Z,2.25
2023-04-03T22:20:52.625Z,0.85
2023-04-03T22:23:19.279Z,1.05
2023-04-03T22:25:59.316Z,0.93
2023-04-03T22:28:27.150Z,0.80
2023-04-03T22:30:54.015Z,0.68
2023-04-03T22:33:20.468Z,0.65
2023-04-03T22:35:47.836Z,0.60
2023-04-03T22:38:15.329Z,0.60
2023-04-03T22:40:42.115Z,0.57
2023-04-03T22:43:08.692Z,0.90
2023-04-03T22:45:35.022Z,0.82
2023-04-03T22:48:01.587Z,0.80
2023-04-03T22:50:27.985Z,1.05
2023-04-03T22:52:54.349Z,0.80
2023-04-03T22:55:20.890Z,1.08
2023-04-03T22:57:47.662Z,0.80
2023-04-03T23:00:15.707Z,0.60
2023-04-03T23:02:42.316Z,0.60
2023-04-03T23:05:09.012Z,0.35
2023-04-03T23:07:35.407Z,0.50
2023-04-03T23:10:02.142Z,0.40
2023-04-03T23:12:28.489Z,0.40
2023-04-03T23:14:54.771Z,0.30
2023-04-03T23:17:21.361Z,0.30
2023-04-03T23:19:47.906Z,0.70
2023-04-03T23:22:15.033Z,0.50
2023-04-03T23:24:41.675Z,0.40
2023-04-03T23:27:08.009Z,0.40
2023-04-03T23:29:34.439Z,0.32
2023-04-03T23:32:01.127Z,0.32
2023-04-03T23:34:27.539Z,0.40
2023-04-03T23:36:53.927Z,0.40
2023-04-03T23:39:22.010Z,0.30
2023-04-03T23:41:49.490Z,0.40
2023-04-03T23:44:15.858Z,0.40
2023-04-03T23:46:42.238Z,0.32
2023-04-03T23:49:08.638Z,0.60
2023-04-03T23:51:34.987Z,0.45
2023-04-03T23:54:01.369Z,0.35
2023-04-03T23:56:28.540Z,0.40
2023-04-03T23:58:54.854Z,0.57
